sensor_id;sensor_type;location;lat;lon;timestamp;P1;durP1;ratioP1;P2;durP2;ratioP2
3503;SDS011;1766;53.490;10.174;2022-09-13T00:01:26;4.33;;;3.63;;
3503;SDS011;1766;53.490;10.174;2022-09-13T00:03:28;5.07;;;4.13;;
3503;SDS011;1766;53.490;10.174;2022-09-13T00:05:30;3.70;;;3.40;;
3503;SDS011;1766;53.490;10.174;2022-09-13T00:07:32;5.10;;;3.30;;
3503;SDS011;1766;53.490;10.174;2022-09-13T00:09:35;5.77;;;3.60;;
3503;SDS011;1766;53.490;10.174;2022-09-13T00:11:37;3.47;;;3.27;;
3503;SDS011;1766;53.490;10.174;2022-09-13T00:13:38;4.83;;;3.60;;
3503;SDS011;1766;53.490;10.174;2022-09-13T00:15:41;4.17;;;3.77;;
3503;SDS011;1766;53.490;10.174;2022-09-13T00:17:44;4.17;;;3.77;;
3503;SDS011;1766;53.490;10.174;2022-09-13T00:19:46;3.70;;;3.40;;
3503;SDS011;1766;53.490;10.174;2022-09-13T00:21:48;3.83;;;3.53;;
3503;SDS011;1766;53.490;10.174;2022-09-13T00:23:51;3.97;;;3.57;;
3503;SDS011;1766;53.490;10.174;2022-09-13T00:26:02;3.90;;;3.60;;
3503;SDS011;1766;53.490;10.174;2022-09-13T00:28:06;4.10;;;3.70;;
3503;SDS011;1766;53.490;10.174;2022-09-13T00:30:08;4.17;;;3.77;;
3503;SDS011;1766;53.490;10.174;2022-09-13T00:32:12;4.10;;;3.10;;
3503;SDS011;1766;53.490;10.174;2022-09-13T00:34:13;4.47;;;3.30;;
3503;SDS011;1766;53.490;10.174;2022-09-13T00:36:15;5.20;;;3.60;;
3503;SDS011;1766;53.490;10.174;2022-09-13T00:38:17;4.17;;;3.33;;
3503;SDS011;1766;53.490;10.174;2022-09-13T00:40:19;4.83;;;3.40;;
3503;SDS011;1766;53.490;10.174;2022-09-13T00:42:24;3.93;;;3.63;;
3503;SDS011;1766;53.490;10.174;2022-09-13T00:46:52;4.20;;;3.53;;
3503;SDS011;1766;53.490;10.174;2022-09-13T00:48:55;3.57;;;3.30;;
3503;SDS011;1766;53.490;10.174;2022-09-13T00:51:01;4.43;;;4.03;;
3503;SDS011;1766;53.490;10.174;2022-09-13T00:53:06;5.97;;;3.27;;
3503;SDS011;1766;53.490;10.174;2022-09-13T00:55:14;7.73;;;3.70;;
3503;SDS011;1766;53.490;10.174;2022-09-13T00:57:22;4.47;;;4.00;;
3503;SDS011;1766;53.490;10.174;2022-09-13T00:59:27;6.37;;;4.00;;
3503;SDS011;1766;53.490;10.174;2022-09-13T01:01:36;8.77;;;3.87;;
3503;SDS011;1766;53.490;10.174;2022-09-13T01:03:44;10.20;;;3.97;;
3503;SDS011;1766;53.490;10.174;2022-09-13T01:05:49;7.93;;;4.13;;
3503;SDS011;1766;53.490;10.174;2022-09-13T01:07:55;4.40;;;3.97;;
3503;SDS011;1766;53.490;10.174;2022-09-13T01:10:01;4.60;;;4.13;;
3503;SDS011;1766;53.490;10.174;2022-09-13T01:12:07;4.67;;;4.27;;
3503;SDS011;1766;53.490;10.174;2022-09-13T01:14:18;5.60;;;4.80;;
3503;SDS011;1766;53.490;10.174;2022-09-13T01:16:22;4.83;;;4.33;;
3503;SDS011;1766;53.490;10.174;2022-09-13T01:18:24;6.53;;;4.47;;
3503;SDS011;1766;53.490;10.174;2022-09-13T01:20:29;5.83;;;4.87;;
3503;SDS011;1766;53.490;10.174;2022-09-13T01:30:50;7.87;;;4.97;;
3503;SDS011;1766;53.490;10.174;2022-09-13T01:33:06;5.70;;;5.00;;
3503;SDS011;1766;53.490;10.174;2022-09-13T01:35:27;6.77;;;5.73;;
3503;SDS011;1766;53.490;10.174;2022-09-13T01:37:46;6.70;;;5.90;;
3503;SDS011;1766;53.490;10.174;2022-09-13T01:39:59;8.53;;;5.13;;
3503;SDS011;1766;53.490;10.174;2022-09-13T01:42:10;7.83;;;6.23;;
3503;SDS011;1766;53.490;10.174;2022-09-13T01:44:26;6.73;;;6.03;;
3503;SDS011;1766;53.490;10.174;2022-09-13T01:46:44;7.90;;;6.30;;
3503;SDS011;1766;53.490;10.174;2022-09-13T01:48:54;8.37;;;6.23;;
3503;SDS011;1766;53.490;10.174;2022-09-13T01:51:03;6.80;;;6.20;;
3503;SDS011;1766;53.490;10.174;2022-09-13T01:53:12;6.70;;;5.80;;
3503;SDS011;1766;53.490;10.174;2022-09-13T01:55:25;9.83;;;7.60;;
3503;SDS011;1766;53.490;10.174;2022-09-13T01:57:34;7.57;;;6.83;;
3503;SDS011;1766;53.490;10.174;2022-09-13T01:59:42;8.00;;;6.23;;
3503;SDS011;1766;53.490;10.174;2022-09-13T02:01:54;7.17;;;6.20;;
3503;SDS011;1766;53.490;10.174;2022-09-13T02:04:02;6.93;;;5.93;;
3503;SDS011;1766;53.490;10.174;2022-09-13T02:06:09;6.30;;;5.77;;
3503;SDS011;1766;53.490;10.174;2022-09-13T02:08:15;9.27;;;6.27;;
3503;SDS011;1766;53.490;10.174;2022-09-13T02:10:24;6.67;;;5.97;;
3503;SDS011;1766;53.490;10.174;2022-09-13T02:12:31;8.47;;;6.63;;
3503;SDS011;1766;53.490;10.174;2022-09-13T02:14:37;7.60;;;6.80;;
3503;SDS011;1766;53.490;10.174;2022-09-13T02:16:41;8.17;;;6.83;;
3503;SDS011;1766;53.490;10.174;2022-09-13T02:18:50;7.80;;;7.00;;
3503;SDS011;1766;53.490;10.174;2022-09-13T02:20:57;8.50;;;6.50;;
3503;SDS011;1766;53.490;10.174;2022-09-13T02:23:06;9.27;;;6.93;;
3503;SDS011;1766;53.490;10.174;2022-09-13T02:25:15;8.57;;;6.13;;
3503;SDS011;1766;53.490;10.174;2022-09-13T02:27:20;6.93;;;6.20;;
3503;SDS011;1766;53.490;10.174;2022-09-13T02:29:26;7.00;;;6.27;;
3503;SDS011;1766;53.490;10.174;2022-09-13T02:31:33;8.97;;;6.53;;
3503;SDS011;1766;53.490;10.174;2022-09-13T02:33:41;7.80;;;7.00;;
3503;SDS011;1766;53.490;10.174;2022-09-13T02:35:50;7.83;;;7.13;;
3503;SDS011;1766;53.490;10.174;2022-09-13T02:37:57;11.00;;;7.83;;
3503;SDS011;1766;53.490;10.174;2022-09-13T02:40:05;8.70;;;6.83;;
3503;SDS011;1766;53.490;10.174;2022-09-13T02:42:13;8.50;;;7.00;;
3503;SDS011;1766;53.490;10.174;2022-09-13T02:44:21;13.00;;;6.87;;
3503;SDS011;1766;53.490;10.174;2022-09-13T02:46:33;7.03;;;6.33;;
3503;SDS011;1766;53.490;10.174;2022-09-13T02:48:49;11.00;;;7.37;;
3503;SDS011;1766;53.490;10.174;2022-09-13T02:51:01;8.23;;;7.43;;
3503;SDS011;1766;53.490;10.174;2022-09-13T02:53:10;8.47;;;7.57;;
3503;SDS011;1766;53.490;10.174;2022-09-13T02:55:20;9.30;;;7.10;;
3503;SDS011;1766;53.490;10.174;2022-09-13T02:57:30;8.27;;;7.17;;
3503;SDS011;1766;53.490;10.174;2022-09-13T02:59:36;7.40;;;6.57;;
3503;SDS011;1766;53.490;10.174;2022-09-13T03:01:38;8.47;;;7.13;;
3503;SDS011;1766;53.490;10.174;2022-09-13T03:03:45;7.90;;;6.70;;
3503;SDS011;1766;53.490;10.174;2022-09-13T03:05:47;7.83;;;7.03;;
3503;SDS011;1766;53.490;10.174;2022-09-13T03:07:51;8.53;;;7.10;;
3503;SDS011;1766;53.490;10.174;2022-09-13T03:09:54;7.90;;;7.20;;
3503;SDS011;1766;53.490;10.174;2022-09-13T03:12:05;8.27;;;6.67;;
3503;SDS011;1766;53.490;10.174;2022-09-13T03:14:29;8.23;;;6.57;;
3503;SDS011;1766;53.490;10.174;2022-09-13T03:16:42;10.03;;;6.43;;
3503;SDS011;1766;53.490;10.174;2022-09-13T03:19:09;7.20;;;6.40;;
3503;SDS011;1766;53.490;10.174;2022-09-13T03:21:30;7.67;;;6.73;;
3503;SDS011;1766;53.490;10.174;2022-09-13T03:23:54;10.50;;;7.70;;
3503;SDS011;1766;53.490;10.174;2022-09-13T03:26:11;7.87;;;6.70;;
3503;SDS011;1766;53.490;10.174;2022-09-13T03:28:26;7.33;;;6.63;;
3503;SDS011;1766;53.490;10.174;2022-09-13T03:30:35;9.33;;;6.70;;
3503;SDS011;1766;53.490;10.174;2022-09-13T03:32:43;11.90;;;9.87;;
3503;SDS011;1766;53.490;10.174;2022-09-13T03:34:51;7.70;;;6.90;;
3503;SDS011;1766;53.490;10.174;2022-09-13T03:37:02;8.93;;;7.53;;
3503;SDS011;1766;53.490;10.174;2022-09-13T03:39:10;10.03;;;8.00;;
3503;SDS011;1766;53.490;10.174;2022-09-13T03:41:21;10.57;;;7.90;;
3503;SDS011;1766;53.490;10.174;2022-09-13T03:43:27;9.87;;;7.50;;
3503;SDS011;1766;53.490;10.174;2022-09-13T03:45:36;10.50;;;7.73;;
3503;SDS011;1766;53.490;10.174;2022-09-13T03:47:45;9.37;;;7.83;;
3503;SDS011;1766;53.490;10.174;2022-09-13T03:49:50;9.47;;;7.43;;
3503;SDS011;1766;53.490;10.174;2022-09-13T03:51:54;8.90;;;7.27;;
3503;SDS011;1766;53.490;10.174;2022-09-13T03:53:58;9.50;;;7.23;;
3503;SDS011;1766;53.490;10.174;2022-09-13T03:56:12;11.77;;;7.53;;
3503;SDS011;1766;53.490;10.174;2022-09-13T03:58:17;9.53;;;8.00;;
3503;SDS011;1766;53.490;10.174;2022-09-13T04:00:21;11.20;;;7.83;;
3503;SDS011;1766;53.490;10.174;2022-09-13T04:02:24;11.23;;;8.20;;
3503;SDS011;1766;53.490;10.174;2022-09-13T04:04:26;17.00;;;9.40;;
3503;SDS011;1766;53.490;10.174;2022-09-13T04:06:28;9.97;;;8.27;;
3503;SDS011;1766;53.490;10.174;2022-09-13T04:08:30;9.77;;;8.37;;
3503;SDS011;1766;53.490;10.174;2022-09-13T04:10:32;10.70;;;8.20;;
3503;SDS011;1766;53.490;10.174;2022-09-13T04:12:37;12.13;;;8.97;;
3503;SDS011;1766;53.490;10.174;2022-09-13T04:14:40;11.57;;;8.93;;
3503;SDS011;1766;53.490;10.174;2022-09-13T04:16:43;12.67;;;9.57;;
3503;SDS011;1766;53.490;10.174;2022-09-13T04:18:44;13.90;;;9.10;;
3503;SDS011;1766;53.490;10.174;2022-09-13T04:20:52;15.97;;;10.87;;
3503;SDS011;1766;53.490;10.174;2022-09-13T04:22:55;12.60;;;10.00;;
3503;SDS011;1766;53.490;10.174;2022-09-13T04:24:57;12.97;;;9.90;;
3503;SDS011;1766;53.490;10.174;2022-09-13T04:27:00;12.03;;;10.17;;
3503;SDS011;1766;53.490;10.174;2022-09-13T04:29:04;12.23;;;9.37;;
3503;SDS011;1766;53.490;10.174;2022-09-13T04:31:06;19.90;;;10.77;;
3503;SDS011;1766;53.490;10.174;2022-09-13T04:33:08;11.70;;;9.53;;
3503;SDS011;1766;53.490;10.174;2022-09-13T04:35:10;10.73;;;9.57;;
3503;SDS011;1766;53.490;10.174;2022-09-13T04:37:12;14.97;;;10.40;;
3503;SDS011;1766;53.490;10.174;2022-09-13T04:39:13;12.33;;;10.60;;
3503;SDS011;1766;53.490;10.174;2022-09-13T04:41:15;12.33;;;9.60;;
3503;SDS011;1766;53.490;10.174;2022-09-13T04:43:17;15.50;;;10.40;;
3503;SDS011;1766;53.490;10.174;2022-09-13T04:45:20;15.37;;;11.13;;
3503;SDS011;1766;53.490;10.174;2022-09-13T04:47:23;14.17;;;10.67;;
3503;SDS011;1766;53.490;10.174;2022-09-13T04:49:25;12.73;;;10.10;;
3503;SDS011;1766;53.490;10.174;2022-09-13T04:51:26;14.10;;;10.53;;
3503;SDS011;1766;53.490;10.174;2022-09-13T04:53:28;13.43;;;10.67;;
3503;SDS011;1766;53.490;10.174;2022-09-13T04:55:30;13.60;;;10.70;;
3503;SDS011;1766;53.490;10.174;2022-09-13T04:57:32;15.33;;;11.13;;
3503;SDS011;1766;53.490;10.174;2022-09-13T04:59:33;16.13;;;10.87;;
3503;SDS011;1766;53.490;10.174;2022-09-13T05:01:37;16.77;;;10.97;;
3503;SDS011;1766;53.490;10.174;2022-09-13T05:03:39;13.90;;;11.53;;
3503;SDS011;1766;53.490;10.174;2022-09-13T05:05:41;18.27;;;12.07;;
3503;SDS011;1766;53.490;10.174;2022-09-13T05:07:42;17.13;;;11.50;;
3503;SDS011;1766;53.490;10.174;2022-09-13T05:09:44;18.30;;;12.63;;
3503;SDS011;1766;53.490;10.174;2022-09-13T05:11:46;18.63;;;12.77;;
3503;SDS011;1766;53.490;10.174;2022-09-13T05:13:49;20.63;;;14.53;;
3503;SDS011;1766;53.490;10.174;2022-09-13T05:15:54;20.13;;;14.77;;
3503;SDS011;1766;53.490;10.174;2022-09-13T05:17:58;21.00;;;14.67;;
3503;SDS011;1766;53.490;10.174;2022-09-13T05:19:59;19.37;;;13.77;;
3503;SDS011;1766;53.490;10.174;2022-09-13T05:22:02;22.80;;;14.40;;
3503;SDS011;1766;53.490;10.174;2022-09-13T05:24:04;160.40;;;101.80;;
3503;SDS011;1766;53.490;10.174;2022-09-13T05:26:06;64.57;;;44.10;;
3503;SDS011;1766;53.490;10.174;2022-09-13T05:28:08;24.40;;;16.43;;
3503;SDS011;1766;53.490;10.174;2022-09-13T05:30:11;26.37;;;15.37;;
3503;SDS011;1766;53.490;10.174;2022-09-13T05:32:13;25.00;;;15.43;;
3503;SDS011;1766;53.490;10.174;2022-09-13T05:34:16;25.17;;;17.03;;
3503;SDS011;1766;53.490;10.174;2022-09-13T05:36:18;25.13;;;16.93;;
3503;SDS011;1766;53.490;10.174;2022-09-13T05:38:20;25.00;;;16.80;;
3503;SDS011;1766;53.490;10.174;2022-09-13T05:40:23;21.40;;;14.57;;
3503;SDS011;1766;53.490;10.174;2022-09-13T05:42:25;24.73;;;16.70;;
3503;SDS011;1766;53.490;10.174;2022-09-13T05:44:27;25.50;;;16.80;;
3503;SDS011;1766;53.490;10.174;2022-09-13T05:46:28;28.30;;;17.27;;
3503;SDS011;1766;53.490;10.174;2022-09-13T05:48:30;29.90;;;18.47;;
3503;SDS011;1766;53.490;10.174;2022-09-13T05:50:37;26.30;;;16.87;;
3503;SDS011;1766;53.490;10.174;2022-09-13T05:52:39;60.00;;;37.27;;
3503;SDS011;1766;53.490;10.174;2022-09-13T05:54:40;47.47;;;29.67;;
3503;SDS011;1766;53.490;10.174;2022-09-13T05:56:42;35.07;;;19.93;;
3503;SDS011;1766;53.490;10.174;2022-09-13T05:58:47;30.17;;;18.43;;
3503;SDS011;1766;53.490;10.174;2022-09-13T06:00:51;31.57;;;17.37;;
3503;SDS011;1766;53.490;10.174;2022-09-13T06:02:54;30.60;;;19.13;;
3503;SDS011;1766;53.490;10.174;2022-09-13T06:04:56;27.23;;;17.30;;
3503;SDS011;1766;53.490;10.174;2022-09-13T06:06:59;31.20;;;19.23;;
3503;SDS011;1766;53.490;10.174;2022-09-13T06:09:01;33.93;;;19.43;;
3503;SDS011;1766;53.490;10.174;2022-09-13T06:11:06;30.60;;;18.60;;
3503;SDS011;1766;53.490;10.174;2022-09-13T06:13:10;30.93;;;19.40;;
3503;SDS011;1766;53.490;10.174;2022-09-13T06:15:12;30.90;;;19.03;;
3503;SDS011;1766;53.490;10.174;2022-09-13T06:17:14;31.30;;;19.73;;
3503;SDS011;1766;53.490;10.174;2022-09-13T06:19:16;35.23;;;21.57;;
3503;SDS011;1766;53.490;10.174;2022-09-13T06:21:19;37.73;;;23.47;;
3503;SDS011;1766;53.490;10.174;2022-09-13T06:23:23;31.73;;;20.20;;
3503;SDS011;1766;53.490;10.174;2022-09-13T06:25:25;31.63;;;21.57;;
3503;SDS011;1766;53.490;10.174;2022-09-13T06:27:27;35.40;;;19.63;;
3503;SDS011;1766;53.490;10.174;2022-09-13T06:29:30;33.50;;;20.43;;
3503;SDS011;1766;53.490;10.174;2022-09-13T06:31:32;29.87;;;18.77;;
3503;SDS011;1766;53.490;10.174;2022-09-13T06:33:34;32.50;;;19.00;;
3503;SDS011;1766;53.490;10.174;2022-09-13T06:35:40;28.73;;;18.77;;
3503;SDS011;1766;53.490;10.174;2022-09-13T06:37:42;29.10;;;18.83;;
3503;SDS011;1766;53.490;10.174;2022-09-13T06:39:46;28.27;;;18.77;;
3503;SDS011;1766;53.490;10.174;2022-09-13T06:41:48;37.80;;;24.03;;
3503;SDS011;1766;53.490;10.174;2022-09-13T06:43:52;28.00;;;18.17;;
3503;SDS011;1766;53.490;10.174;2022-09-13T06:45:58;30.83;;;18.37;;
3503;SDS011;1766;53.490;10.174;2022-09-13T06:48:01;26.77;;;17.03;;
3503;SDS011;1766;53.490;10.174;2022-09-13T06:50:03;28.27;;;17.93;;
3503;SDS011;1766;53.490;10.174;2022-09-13T06:52:08;28.87;;;16.87;;
3503;SDS011;1766;53.490;10.174;2022-09-13T06:54:09;131.67;;;85.83;;
3503;SDS011;1766;53.490;10.174;2022-09-13T06:56:13;27.63;;;17.47;;
3503;SDS011;1766;53.490;10.174;2022-09-13T06:58:17;26.53;;;15.03;;
3503;SDS011;1766;53.490;10.174;2022-09-13T07:00:19;26.60;;;15.23;;
3503;SDS011;1766;53.490;10.174;2022-09-13T07:02:21;23.40;;;16.10;;
3503;SDS011;1766;53.490;10.174;2022-09-13T07:04:24;25.93;;;16.20;;
3503;SDS011;1766;53.490;10.174;2022-09-13T07:06:31;26.20;;;17.13;;
3503;SDS011;1766;53.490;10.174;2022-09-13T07:08:35;21.00;;;15.03;;
3503;SDS011;1766;53.490;10.174;2022-09-13T07:10:38;18.73;;;14.03;;
3503;SDS011;1766;53.490;10.174;2022-09-13T07:12:41;20.00;;;14.43;;
3503;SDS011;1766;53.490;10.174;2022-09-13T07:14:43;20.27;;;14.23;;
3503;SDS011;1766;53.490;10.174;2022-09-13T07:16:45;24.57;;;13.27;;
3503;SDS011;1766;53.490;10.174;2022-09-13T07:18:49;20.23;;;14.23;;
3503;SDS011;1766;53.490;10.174;2022-09-13T07:20:52;17.93;;;12.40;;
3503;SDS011;1766;53.490;10.174;2022-09-13T07:23:00;20.10;;;13.20;;
3503;SDS011;1766;53.490;10.174;2022-09-13T07:25:02;19.13;;;13.17;;
3503;SDS011;1766;53.490;10.174;2022-09-13T07:27:04;19.50;;;11.93;;
3503;SDS011;1766;53.490;10.174;2022-09-13T07:29:09;18.40;;;12.20;;
3503;SDS011;1766;53.490;10.174;2022-09-13T07:31:15;16.57;;;11.77;;
3503;SDS011;1766;53.490;10.174;2022-09-13T07:33:20;20.33;;;12.37;;
3503;SDS011;1766;53.490;10.174;2022-09-13T07:35:22;19.90;;;11.27;;
3503;SDS011;1766;53.490;10.174;2022-09-13T07:37:24;17.07;;;11.10;;
3503;SDS011;1766;53.490;10.174;2022-09-13T07:39:27;15.70;;;9.80;;
3503;SDS011;1766;53.490;10.174;2022-09-13T07:41:30;17.30;;;9.90;;
3503;SDS011;1766;53.490;10.174;2022-09-13T07:43:33;13.47;;;8.80;;
3503;SDS011;1766;53.490;10.174;2022-09-13T07:45:37;17.63;;;8.73;;
3503;SDS011;1766;53.490;10.174;2022-09-13T07:47:39;59.40;;;36.80;;
3503;SDS011;1766;53.490;10.174;2022-09-13T07:49:41;33.97;;;20.53;;
3503;SDS011;1766;53.490;10.174;2022-09-13T07:51:43;15.67;;;8.53;;
3503;SDS011;1766;53.490;10.174;2022-09-13T07:53:46;10.20;;;8.00;;
3503;SDS011;1766;53.490;10.174;2022-09-13T07:55:49;14.23;;;7.67;;
3503;SDS011;1766;53.490;10.174;2022-09-13T07:57:51;14.33;;;8.80;;
3503;SDS011;1766;53.490;10.174;2022-09-13T07:59:53;13.90;;;8.53;;
3503;SDS011;1766;53.490;10.174;2022-09-13T08:01:56;12.50;;;7.67;;
3503;SDS011;1766;53.490;10.174;2022-09-13T08:03:59;14.40;;;8.23;;
3503;SDS011;1766;53.490;10.174;2022-09-13T08:06:02;17.53;;;8.03;;
3503;SDS011;1766;53.490;10.174;2022-09-13T08:08:06;14.03;;;8.10;;
3503;SDS011;1766;53.490;10.174;2022-09-13T08:10:08;9.97;;;6.80;;
3503;SDS011;1766;53.490;10.174;2022-09-13T08:12:10;11.90;;;6.70;;
3503;SDS011;1766;53.490;10.174;2022-09-13T08:14:12;16.40;;;7.13;;
3503;SDS011;1766;53.490;10.174;2022-09-13T08:16:17;10.20;;;6.30;;
3503;SDS011;1766;53.490;10.174;2022-09-13T08:18:22;11.10;;;7.17;;
3503;SDS011;1766;53.490;10.174;2022-09-13T08:20:23;9.57;;;6.57;;
3503;SDS011;1766;53.490;10.174;2022-09-13T08:22:25;11.87;;;7.47;;
3503;SDS011;1766;53.490;10.174;2022-09-13T08:24:27;11.87;;;8.70;;
3503;SDS011;1766;53.490;10.174;2022-09-13T08:26:29;14.40;;;6.83;;
3503;SDS011;1766;53.490;10.174;2022-09-13T08:28:34;18.77;;;7.77;;
3503;SDS011;1766;53.490;10.174;2022-09-13T08:30:37;27.33;;;9.53;;
3503;SDS011;1766;53.490;10.174;2022-09-13T08:32:40;14.80;;;6.10;;
3503;SDS011;1766;53.490;10.174;2022-09-13T08:34:43;10.27;;;5.53;;
3503;SDS011;1766;53.490;10.174;2022-09-13T08:36:44;12.70;;;5.77;;
3503;SDS011;1766;53.490;10.174;2022-09-13T08:38:47;12.50;;;5.67;;
3503;SDS011;1766;53.490;10.174;2022-09-13T08:40:51;12.10;;;5.63;;
3503;SDS011;1766;53.490;10.174;2022-09-13T08:42:57;9.90;;;4.87;;
3503;SDS011;1766;53.490;10.174;2022-09-13T08:45:06;11.53;;;4.73;;
3503;SDS011;1766;53.490;10.174;2022-09-13T08:47:14;8.83;;;4.07;;
3503;SDS011;1766;53.490;10.174;2022-09-13T08:49:31;10.47;;;4.40;;
3503;SDS011;1766;53.490;10.174;2022-09-13T08:51:39;9.27;;;3.73;;
3503;SDS011;1766;53.490;10.174;2022-09-13T08:53:46;37.10;;;10.93;;
3503;SDS011;1766;53.490;10.174;2022-09-13T08:55:53;35.90;;;14.80;;
3503;SDS011;1766;53.490;10.174;2022-09-13T08:58:04;7.23;;;3.07;;
3503;SDS011;1766;53.490;10.174;2022-09-13T09:00:26;6.83;;;2.43;;
3503;SDS011;1766;53.490;10.174;2022-09-13T09:02:40;7.23;;;3.10;;
3503;SDS011;1766;53.490;10.174;2022-09-13T09:04:57;4.27;;;2.30;;
3503;SDS011;1766;53.490;10.174;2022-09-13T09:07:08;8.60;;;2.50;;
3503;SDS011;1766;53.490;10.174;2022-09-13T09:09:14;8.83;;;2.57;;
3503;SDS011;1766;53.490;10.174;2022-09-13T09:11:22;5.10;;;2.10;;
3503;SDS011;1766;53.490;10.174;2022-09-13T09:13:31;7.63;;;1.90;;
3503;SDS011;1766;53.490;10.174;2022-09-13T09:15:40;7.57;;;2.70;;
3503;SDS011;1766;53.490;10.174;2022-09-13T09:17:45;14.37;;;3.40;;
3503;SDS011;1766;53.490;10.174;2022-09-13T09:19:54;18.33;;;3.03;;
3503;SDS011;1766;53.490;10.174;2022-09-13T09:22:12;10.40;;;2.27;;
3503;SDS011;1766;53.490;10.174;2022-09-13T09:24:18;3.73;;;1.63;;
3503;SDS011;1766;53.490;10.174;2022-09-13T09:26:23;7.23;;;1.73;;
3503;SDS011;1766;53.490;10.174;2022-09-13T09:28:28;4.67;;;1.50;;
3503;SDS011;1766;53.490;10.174;2022-09-13T09:30:34;6.37;;;1.27;;
3503;SDS011;1766;53.490;10.174;2022-09-13T09:32:46;6.37;;;1.20;;
3503;SDS011;1766;53.490;10.174;2022-09-13T09:35:00;9.00;;;2.40;;
3503;SDS011;1766;53.490;10.174;2022-09-13T09:37:15;18.03;;;10.17;;
3503;SDS011;1766;53.490;10.174;2022-09-13T09:39:21;6.77;;;2.50;;
3503;SDS011;1766;53.490;10.174;2022-09-13T09:41:28;9.27;;;1.40;;
3503;SDS011;1766;53.490;10.174;2022-09-13T09:43:33;4.57;;;1.23;;
3503;SDS011;1766;53.490;10.174;2022-09-13T09:45:39;2.83;;;1.00;;
3503;SDS011;1766;53.490;10.174;2022-09-13T09:47:44;4.77;;;1.10;;
3503;SDS011;1766;53.490;10.174;2022-09-13T09:49:49;4.87;;;1.20;;
3503;SDS011;1766;53.490;10.174;2022-09-13T09:52:09;5.03;;;1.10;;
3503;SDS011;1766;53.490;10.174;2022-09-13T09:54:15;16.13;;;2.37;;
3503;SDS011;1766;53.490;10.174;2022-09-13T09:56:20;18.03;;;2.20;;
3503;SDS011;1766;53.490;10.174;2022-09-13T09:58:35;6.37;;;1.00;;
3503;SDS011;1766;53.490;10.174;2022-09-13T10:00:49;7.03;;;1.43;;
3503;SDS011;1766;53.490;10.174;2022-09-13T10:02:53;4.33;;;0.70;;
3503;SDS011;1766;53.490;10.174;2022-09-13T10:04:58;6.10;;;1.53;;
3503;SDS011;1766;53.490;10.174;2022-09-13T10:07:07;4.23;;;1.10;;
3503;SDS011;1766;53.490;10.174;2022-09-13T10:09:19;6.70;;;0.80;;
3503;SDS011;1766;53.490;10.174;2022-09-13T10:11:22;8.73;;;1.03;;
3503;SDS011;1766;53.490;10.174;2022-09-13T10:13:26;4.47;;;0.93;;
3503;SDS011;1766;53.490;10.174;2022-09-13T10:15:30;3.80;;;0.83;;
3503;SDS011;1766;53.490;10.174;2022-09-13T10:17:33;4.37;;;1.83;;
3503;SDS011;1766;53.490;10.174;2022-09-13T10:19:36;8.27;;;5.70;;
3503;SDS011;1766;53.490;10.174;2022-09-13T10:21:38;2.90;;;1.03;;
3503;SDS011;1766;53.490;10.174;2022-09-13T10:23:40;5.20;;;0.93;;
3503;SDS011;1766;53.490;10.174;2022-09-13T10:25:43;9.43;;;0.80;;
3503;SDS011;1766;53.490;10.174;2022-09-13T10:27:56;2.73;;;0.73;;
3503;SDS011;1766;53.490;10.174;2022-09-13T10:30:00;4.37;;;0.70;;
3503;SDS011;1766;53.490;10.174;2022-09-13T10:32:06;5.40;;;0.80;;
3503;SDS011;1766;53.490;10.174;2022-09-13T10:34:12;3.27;;;0.90;;
3503;SDS011;1766;53.490;10.174;2022-09-13T10:36:20;8.23;;;4.33;;
3503;SDS011;1766;53.490;10.174;2022-09-13T10:38:26;18.67;;;9.27;;
3503;SDS011;1766;53.490;10.174;2022-09-13T10:40:31;8.03;;;1.10;;
3503;SDS011;1766;53.490;10.174;2022-09-13T10:42:38;6.20;;;1.90;;
3503;SDS011;1766;53.490;10.174;2022-09-13T10:44:42;9.50;;;1.83;;
3503;SDS011;1766;53.490;10.174;2022-09-13T10:46:46;4.88;;;0.90;;
3503;SDS011;1766;53.490;10.174;2022-09-13T10:48:49;5.50;;;0.93;;
3503;SDS011;1766;53.490;10.174;2022-09-13T10:51:03;4.40;;;0.73;;
3503;SDS011;1766;53.490;10.174;2022-09-13T10:53:23;7.20;;;1.17;;
3503;SDS011;1766;53.490;10.174;2022-09-13T10:55:35;6.70;;;1.08;;
3503;SDS011;1766;53.490;10.174;2022-09-13T10:57:41;4.43;;;0.80;;
3503;SDS011;1766;53.490;10.174;2022-09-13T10:59:43;4.63;;;0.80;;
3503;SDS011;1766;53.490;10.174;2022-09-13T11:01:57;6.68;;;1.10;;
3503;SDS011;1766;53.490;10.174;2022-09-13T11:04:29;6.68;;;1.00;;
3503;SDS011;1766;53.490;10.174;2022-09-13T11:06:56;5.78;;;0.60;;
3503;SDS011;1766;53.490;10.174;2022-09-13T11:09:09;4.30;;;0.60;;
3503;SDS011;1766;53.490;10.174;2022-09-13T11:11:17;3.10;;;0.88;;
3503;SDS011;1766;53.490;10.174;2022-09-13T11:13:27;5.45;;;0.80;;
3503;SDS011;1766;53.490;10.174;2022-09-13T11:15:46;6.10;;;0.70;;
3503;SDS011;1766;53.490;10.174;2022-09-13T11:18:03;4.20;;;0.85;;
3503;SDS011;1766;53.490;10.174;2022-09-13T11:20:30;5.25;;;0.70;;
3503;SDS011;1766;53.490;10.174;2022-09-13T11:22:46;8.25;;;1.50;;
3503;SDS011;1766;53.490;10.174;2022-09-13T11:25:04;4.95;;;0.63;;
3503;SDS011;1766;53.490;10.174;2022-09-13T11:27:21;5.10;;;0.68;;
3503;SDS011;1766;53.490;10.174;2022-09-13T11:29:39;3.38;;;0.80;;
3503;SDS011;1766;53.490;10.174;2022-09-13T11:32:01;6.90;;;1.13;;
3503;SDS011;1766;53.490;10.174;2022-09-13T11:34:21;1.80;;;0.55;;
3503;SDS011;1766;53.490;10.174;2022-09-13T11:39:07;5.15;;;1.15;;
3503;SDS011;1766;53.490;10.174;2022-09-13T11:41:22;3.00;;;1.05;;
3503;SDS011;1766;53.490;10.174;2022-09-13T11:43:39;3.78;;;1.02;;
3503;SDS011;1766;53.490;10.174;2022-09-13T11:45:58;5.50;;;1.25;;
3503;SDS011;1766;53.490;10.174;2022-09-13T11:48:16;4.93;;;1.75;;
3503;SDS011;1766;53.490;10.174;2022-09-13T11:50:45;6.13;;;1.60;;
3503;SDS011;1766;53.490;10.174;2022-09-13T11:53:02;2.78;;;1.38;;
3503;SDS011;1766;53.490;10.174;2022-09-13T11:55:38;2.35;;;0.98;;
3503;SDS011;1766;53.490;10.174;2022-09-13T11:57:46;10.65;;;5.50;;
3503;SDS011;1766;53.490;10.174;2022-09-13T11:59:52;5.60;;;0.90;;
3503;SDS011;1766;53.490;10.174;2022-09-13T12:02:03;4.05;;;0.75;;
3503;SDS011;1766;53.490;10.174;2022-09-13T12:04:17;4.45;;;0.80;;
3503;SDS011;1766;53.490;10.174;2022-09-13T12:06:24;5.00;;;1.25;;
3503;SDS011;1766;53.490;10.174;2022-09-13T12:08:30;2.45;;;0.70;;
3503;SDS011;1766;53.490;10.174;2022-09-13T12:10:37;3.75;;;0.90;;
3503;SDS011;1766;53.490;10.174;2022-09-13T12:12:47;6.55;;;1.15;;
3503;SDS011;1766;53.490;10.174;2022-09-13T12:14:53;6.25;;;1.02;;
3503;SDS011;1766;53.490;10.174;2022-09-13T12:17:03;2.55;;;0.68;;
3503;SDS011;1766;53.490;10.174;2022-09-13T12:19:16;2.40;;;0.70;;
3503;SDS011;1766;53.490;10.174;2022-09-13T12:21:23;4.50;;;0.80;;
3503;SDS011;1766;53.490;10.174;2022-09-13T12:23:30;3.75;;;0.70;;
3503;SDS011;1766;53.490;10.174;2022-09-13T12:25:37;3.13;;;0.82;;
3503;SDS011;1766;53.490;10.174;2022-09-13T12:27:47;4.50;;;0.90;;
3503;SDS011;1766;53.490;10.174;2022-09-13T12:30:13;7.60;;;0.80;;
3503;SDS011;1766;53.490;10.174;2022-09-13T12:32:19;3.60;;;0.85;;
3503;SDS011;1766;53.490;10.174;2022-09-13T12:34:23;3.03;;;0.40;;
3503;SDS011;1766;53.490;10.174;2022-09-13T12:36:45;2.10;;;0.68;;
3503;SDS011;1766;53.490;10.174;2022-09-13T12:39:13;7.63;;;1.20;;
3503;SDS011;1766;53.490;10.174;2022-09-13T12:41:34;3.10;;;0.98;;
3503;SDS011;1766;53.490;10.174;2022-09-13T12:43:53;1.25;;;0.70;;
3503;SDS011;1766;53.490;10.174;2022-09-13T12:46:17;3.22;;;0.50;;
3503;SDS011;1766;53.490;10.174;2022-09-13T12:48:40;4.43;;;0.80;;
3503;SDS011;1766;53.490;10.174;2022-09-13T12:51:05;6.80;;;1.10;;
3503;SDS011;1766;53.490;10.174;2022-09-13T12:53:19;2.90;;;0.93;;
3503;SDS011;1766;53.490;10.174;2022-09-13T12:58:04;4.47;;;1.02;;
3503;SDS011;1766;53.490;10.174;2022-09-13T13:00:21;4.20;;;1.08;;
3503;SDS011;1766;53.490;10.174;2022-09-13T13:02:29;2.53;;;0.63;;
3503;SDS011;1766;53.490;10.174;2022-09-13T13:04:36;9.10;;;1.15;;
3503;SDS011;1766;53.490;10.174;2022-09-13T13:06:40;2.67;;;0.80;;